Time;durP1;ratioP1;P1;durP2;ratioP2;P2;SDS_P1;SDS_P2;PMS_P1;PMS_P2;Temp;Humidity;BMP_temperature;BMP_pressure;BME280_temperature;BME280_humidity;BME280_pressure;Samples;Min_cycle;Max_cycle;Signal;HPM_P1;HPM_P2
2022/10/02 00:01:12;;;;;;;2.73;1.83;;;;;;;;;;4991888;28;20445;-71
2022/10/02 00:03:42;;;;;;;1.23;0.90;;;;;;;;;;4992659;28;20456;-70
2022/10/02 00:06:13;;;;;;;3.03;1.37;;;;;;;;;;4991896;28;21085;-71
2022/10/02 00:08:41;;;;;;;2.60;1.40;;;;;;;;;;4992242;28;20438;-71
2022/10/02 00:11:13;;;;;;;8.87;1.57;;;;;;;;;;4991949;28;20441;-70
2022/10/02 00:13:43;;;;;;;2.53;1.30;;;;;;;;;;4990897;28;20784;-70
2022/10/02 00:16:12;;;;;;;3.00;1.10;;;;;;;;;;4980657;28;20456;-70
2022/10/02 00:18:40;;;;;;;3.20;1.33;;;;;;;;;;4989713;28;20456;-70
2022/10/02 00:21:12;;;;;;;2.70;1.63;;;;;;;;;;4972084;28;20474;-70
2022/10/02 00:23:41;;;;;;;4.20;1.60;;;;;;;;;;4990189;28;20452;-69
2022/10/02 00:26:11;;;;;;;1.67;1.57;;;;;;;;;;4991690;28;20454;-69
2022/10/02 00:28:41;;;;;;;3.07;1.20;;;;;;;;;;4979873;28;20457;-69
2022/10/02 00:31:27;;;;;;;1.73;1.20;;;;;;;;;;4991210;28;21195;-68
2022/10/02 00:34:01;;;;;;;2.53;1.53;;;;;;;;;;4991625;28;20452;-69
2022/10/02 00:36:34;;;;;;;2.03;1.80;;;;;;;;;;4992119;28;20448;-68
2022/10/02 00:39:05;;;;;;;2.20;1.43;;;;;;;;;;4990916;28;20453;-68
2022/10/02 00:41:46;;;;;;;2.00;1.20;;;;;;;;;;4991991;28;20473;-68
2022/10/02 00:44:24;;;;;;;3.60;1.63;;;;;;;;;;4991601;28;20500;-69
2022/10/02 00:46:55;;;;;;;3.60;1.50;;;;;;;;;;4991372;28;20459;-69
2022/10/02 00:49:27;;;;;;;2.17;1.23;;;;;;;;;;4985205;28;20854;-68
2022/10/02 00:52:01;;;;;;;2.03;1.37;;;;;;;;;;4991254;28;20453;-69
2022/10/02 00:54:45;;;;;;;3.07;1.50;;;;;;;;;;4991710;28;20448;-69
2022/10/02 00:57:19;;;;;;;3.00;1.60;;;;;;;;;;4991365;28;20461;-69
2022/10/02 00:59:51;;;;;;;1.90;1.60;;;;;;;;;;4967380;28;20452;-69
2022/10/02 01:02:33;;;;;;;2.50;1.37;;;;;;;;;;4991182;28;21034;-68
2022/10/02 01:05:01;;;;;;;2.30;1.13;;;;;;;;;;4990551;28;20449;-68
2022/10/02 01:07:28;;;;;;;2.90;1.73;;;;;;;;;;4991186;28;20457;-69
2022/10/02 01:09:55;;;;;;;1.43;0.93;;;;;;;;;;4990534;28;20449;-69
2022/10/02 01:12:24;;;;;;;4.17;1.80;;;;;;;;;;4991403;28;20456;-69
2022/10/02 01:14:51;;;;;;;4.33;1.40;;;;;;;;;;4990833;28;20450;-69
2022/10/02 01:17:22;;;;;;;6.80;1.30;;;;;;;;;;4991606;28;20461;-69
2022/10/02 01:19:49;;;;;;;2.13;1.40;;;;;;;;;;4979144;28;20486;-69
2022/10/02 01:22:20;;;;;;;1.70;1.37;;;;;;;;;;4965760;28;20481;-69
2022/10/02 01:24:50;;;;;;;3.23;1.20;;;;;;;;;;4991438;28;20456;-70
2022/10/02 01:27:17;;;;;;;2.27;1.30;;;;;;;;;;4985312;28;20466;-69
2022/10/02 01:29:45;;;;;;;4.20;1.20;;;;;;;;;;4989007;28;20453;-70
2022/10/02 01:32:12;;;;;;;2.37;1.40;;;;;;;;;;4994816;28;20484;-69
2022/10/02 01:34:39;;;;;;;4.77;1.70;;;;;;;;;;4995069;28;20445;-69
2022/10/02 01:37:07;;;;;;;2.00;1.17;;;;;;;;;;4994704;28;20459;-69
2022/10/02 01:39:34;;;;;;;4.40;1.47;;;;;;;;;;4994688;28;20453;-69
2022/10/02 01:42:03;;;;;;;2.70;1.37;;;;;;;;;;4994537;28;20493;-70
2022/10/02 01:44:30;;;;;;;3.37;1.27;;;;;;;;;;4995141;28;20809;-70
2022/10/02 01:47:02;;;;;;;3.50;1.30;;;;;;;;;;4994618;28;20453;-69
2022/10/02 01:49:39;;;;;;;1.50;1.10;;;;;;;;;;4989778;28;20572;-69
2022/10/02 01:52:21;;;;;;;1.93;1.40;;;;;;;;;;4994170;28;20452;-69
2022/10/02 01:54:55;;;;;;;2.00;1.43;;;;;;;;;;4985133;28;20468;-70
2022/10/02 01:57:31;;;;;;;1.83;1.17;;;;;;;;;;4988325;28;20924;-69
2022/10/02 02:00:05;;;;;;;4.43;1.20;;;;;;;;;;4984557;28;20456;-70
2022/10/02 02:02:36;;;;;;;2.73;1.40;;;;;;;;;;4994712;28;20867;-69
2022/10/02 02:05:08;;;;;;;2.57;1.50;;;;;;;;;;4993957;28;20865;-70
2022/10/02 02:07:41;;;;;;;3.17;1.40;;;;;;;;;;4994318;28;20810;-69
2022/10/02 02:10:13;;;;;;;3.83;1.60;;;;;;;;;;4993581;28;20445;-70
2022/10/02 02:12:43;;;;;;;2.40;1.40;;;;;;;;;;4994815;28;20485;-70
2022/10/02 02:15:13;;;;;;;2.83;1.20;;;;;;;;;;4994094;28;20456;-69
2022/10/02 02:17:42;;;;;;;2.40;1.47;;;;;;;;;;4994607;28;20457;-69
2022/10/02 02:20:13;;;;;;;1.50;1.30;;;;;;;;;;4978907;28;20482;-69
2022/10/02 02:22:44;;;;;;;2.17;1.70;;;;;;;;;;4984900;28;20484;-69
2022/10/02 02:25:14;;;;;;;4.73;1.47;;;;;;;;;;4993717;28;20452;-70
2022/10/02 02:27:45;;;;;;;1.67;1.00;;;;;;;;;;4985124;28;20783;-70
2022/10/02 02:30:14;;;;;;;1.87;1.47;;;;;;;;;;4992850;28;20454;-70
2022/10/02 02:32:44;;;;;;;2.50;1.30;;;;;;;;;;4994754;28;20461;-70
2022/10/02 02:35:14;;;;;;;2.10;1.20;;;;;;;;;;4993748;28;20446;-70
2022/10/02 02:37:42;;;;;;;4.07;1.30;;;;;;;;;;4994188;28;20456;-70
2022/10/02 02:40:12;;;;;;;4.97;1.17;;;;;;;;;;4968133;28;20456;-70
2022/10/02 02:42:47;;;;;;;1.70;1.20;;;;;;;;;;4994208;28;20481;-70
2022/10/02 02:45:18;;;;;;;2.87;1.00;;;;;;;;;;4993782;28;20453;-69
2022/10/02 02:47:48;;;;;;;2.10;0.80;;;;;;;;;;4994256;28;20454;-70
2022/10/02 02:50:16;;;;;;;4.00;1.77;;;;;;;;;;4988344;28;20469;-70
2022/10/02 02:52:46;;;;;;;2.00;1.60;;;;;;;;;;4993744;28;20461;-70
2022/10/02 02:55:14;;;;;;;2.20;1.10;;;;;;;;;;4993617;28;20449;-70
2022/10/02 02:57:43;;;;;;;8.70;1.53;;;;;;;;;;4993562;28;20460;-70
2022/10/02 03:00:12;;;;;;;2.63;1.20;;;;;;;;;;4992806;28;20453;-69
2022/10/02 03:02:41;;;;;;;1.77;1.30;;;;;;;;;;4993774;28;20488;-70
2022/10/02 03:05:12;;;;;;;1.97;1.53;;;;;;;;;;4993035;28;20804;-70
2022/10/02 03:07:39;;;;;;;2.43;1.37;;;;;;;;;;4993539;28;20456;-70
2022/10/02 03:10:10;;;;;;;1.33;1.10;;;;;;;;;;4992361;28;20488;-71
2022/10/02 03:12:45;;;;;;;1.67;1.17;;;;;;;;;;4967335;28;20453;-70
2022/10/02 03:15:29;;;;;;;5.03;1.40;;;;;;;;;;4992794;28;20452;-70
2022/10/02 03:18:09;;;;;;;2.57;1.20;;;;;;;;;;4992901;28;20456;-70
2022/10/02 03:20:41;;;;;;;1.60;1.10;;;;;;;;;;4975200;28;20822;-70
2022/10/02 03:23:11;;;;;;;1.70;1.17;;;;;;;;;;4986528;28;21110;-70
2022/10/02 03:25:41;;;;;;;3.80;2.33;;;;;;;;;;4993770;28;20453;-71
2022/10/02 03:28:10;;;;;;;2.20;1.10;;;;;;;;;;4980461;28;20454;-71
2022/10/02 03:30:39;;;;;;;1.93;1.40;;;;;;;;;;4993128;28;20571;-70
2022/10/02 03:33:08;;;;;;;3.60;1.30;;;;;;;;;;4992272;28;20461;-70
2022/10/02 03:35:36;;;;;;;1.43;1.33;;;;;;;;;;4993352;28;20445;-71
2022/10/02 03:38:04;;;;;;;1.47;1.17;;;;;;;;;;4992270;28;20453;-71
2022/10/02 03:40:32;;;;;;;2.80;1.30;;;;;;;;;;4992545;28;20453;-71
2022/10/02 03:42:59;;;;;;;4.60;1.30;;;;;;;;;;4992179;28;20485;-71
2022/10/02 03:45:27;;;;;;;1.93;1.10;;;;;;;;;;4993085;28;20460;-71
2022/10/02 03:47:54;;;;;;;2.80;1.47;;;;;;;;;;4992332;28;20449;-71
2022/10/02 03:50:22;;;;;;;5.17;2.03;;;;;;;;;;4986698;28;20453;-70
2022/10/02 03:52:51;;;;;;;1.80;1.10;;;;;;;;;;4991834;28;20452;-71
2022/10/02 03:55:21;;;;;;;1.90;0.97;;;;;;;;;;4993007;28;20449;-71
2022/10/02 03:57:49;;;;;;;2.43;1.80;;;;;;;;;;4992396;28;20461;-71
2022/10/02 04:00:19;;;;;;;1.07;0.93;;;;;;;;;;4992019;28;20561;-70
2022/10/02 04:02:49;;;;;;;4.20;1.80;;;;;;;;;;4992773;28;20499;-70
2022/10/02 04:05:21;;;;;;;2.20;1.30;;;;;;;;;;4992996;28;20548;-70
2022/10/02 04:07:51;;;;;;;5.63;1.00;;;;;;;;;;4967722;28;20450;-70
2022/10/02 04:10:36;;;;;;;4.80;1.80;;;;;;;;;;4992069;28;20463;-70
2022/10/02 04:13:08;;;;;;;2.50;1.30;;;;;;;;;;4991934;28;20449;-70
2022/10/02 04:15:40;;;;;;;2.60;1.70;;;;;;;;;;4991218;28;20457;-70
2022/10/02 04:18:11;;;;;;;2.90;1.60;;;;;;;;;;4991564;28;20477;-71
2022/10/02 04:20:42;;;;;;;2.23;1.43;;;;;;;;;;4974075;28;20482;-70
2022/10/02 04:23:16;;;;;;;5.30;1.70;;;;;;;;;;4985638;28;20481;-70
2022/10/02 04:25:45;;;;;;;3.57;1.17;;;;;;;;;;4992261;28;20503;-71
2022/10/02 04:28:14;;;;;;;7.03;1.53;;;;;;;;;;4979776;28;20472;-70
2022/10/02 04:30:41;;;;;;;1.77;1.20;;;;;;;;;;4992199;28;20445;-71
2022/10/02 04:33:12;;;;;;;2.80;1.67;;;;;;;;;;4991207;28;20453;-71
2022/10/02 04:35:43;;;;;;;6.60;1.70;;;;;;;;;;4992268;28;20457;-71
2022/10/02 04:38:22;;;;;;;5.23;1.70;;;;;;;;;;4990811;28;20446;-71
2022/10/02 04:40:55;;;;;;;3.40;1.67;;;;;;;;;;4991293;28;20441;-71
2022/10/02 04:43:29;;;;;;;2.90;1.60;;;;;;;;;;4967440;28;20477;-71
2022/10/02 04:46:02;;;;;;;1.73;1.33;;;;;;;;;;4991012;28;20445;-71
2022/10/02 04:48:48;;;;;;;1.53;1.20;;;;;;;;;;4990755;28;20445;-71
2022/10/02 04:51:27;;;;;;;1.83;1.70;;;;;;;;;;4990747;28;20445;-71
2022/10/02 04:54:08;;;;;;;3.27;1.50;;;;;;;;;;4990704;28;20453;-71
2022/10/02 04:56:54;;;;;;;2.93;1.50;;;;;;;;;;4991870;28;20456;-71
2022/10/02 04:59:29;;;;;;;1.37;1.20;;;;;;;;;;4990997;28;20449;-72
2022/10/02 05:02:02;;;;;;;1.70;1.60;;;;;;;;;;4991181;28;20436;-71
2022/10/02 05:04:41;;;;;;;5.13;1.40;;;;;;;;;;4966945;28;20477;-72
2022/10/02 05:07:15;;;;;;;3.13;1.60;;;;;;;;;;4990933;28;20456;-72
2022/10/02 05:09:47;;;;;;;2.20;1.33;;;;;;;;;;4991298;28;20444;-71
2022/10/02 05:12:25;;;;;;;2.30;1.87;;;;;;;;;;4991312;28;20453;-71
2022/10/02 05:15:03;;;;;;;1.97;1.30;;;;;;;;;;4990976;28;20452;-71
2022/10/02 05:17:41;;;;;;;2.10;1.60;;;;;;;;;;4991749;28;20453;-71
2022/10/02 05:20:16;;;;;;;2.70;1.43;;;;;;;;;;4975983;28;20484;-71
2022/10/02 05:22:53;;;;;;;1.53;1.00;;;;;;;;;;4982141;28;20781;-71
2022/10/02 05:25:38;;;;;;;2.27;1.20;;;;;;;;;;4991822;28;20446;-70
2022/10/02 05:28:09;;;;;;;1.90;1.30;;;;;;;;;;4978219;28;20458;-72
2022/10/02 05:30:39;;;;;;;7.93;1.67;;;;;;;;;;4991671;28;20808;-71
2022/10/02 05:33:31;;;;;;;2.27;1.20;;;;;;;;;;4990416;28;20941;-70
2022/10/02 05:36:16;;;;;;;4.40;1.20;;;;;;;;;;4967805;28;20467;-71
2022/10/02 05:38:51;;;;;;;2.60;1.10;;;;;;;;;;4990813;28;20445;-71
2022/10/02 05:41:22;;;;;;;1.50;1.30;;;;;;;;;;4991404;28;20433;-71
2022/10/02 05:43:51;;;;;;;2.83;0.93;;;;;;;;;;4990876;28;20480;-71
2022/10/02 05:46:22;;;;;;;1.60;1.20;;;;;;;;;;4991336;28;20461;-71
2022/10/02 05:48:52;;;;;;;2.33;1.20;;;;;;;;;;4987444;28;20469;-71
2022/10/02 05:51:23;;;;;;;2.83;1.77;;;;;;;;;;4989935;28;20445;-71
2022/10/02 05:53:55;;;;;;;1.60;1.10;;;;;;;;;;4990930;28;20456;-71
2022/10/02 05:56:26;;;;;;;2.77;1.40;;;;;;;;;;4991078;28;20507;-71
2022/10/02 05:58:55;;;;;;;1.80;1.57;;;;;;;;;;4989919;28;20457;-71
2022/10/02 06:01:24;;;;;;;1.27;1.00;;;;;;;;;;4991350;28;20453;-71
2022/10/02 06:03:55;;;;;;;4.13;1.20;;;;;;;;;;4990486;28;20489;-71
2022/10/02 06:06:24;;;;;;;2.90;1.27;;;;;;;;;;4990993;28;20937;-71
2022/10/02 06:08:57;;;;;;;2.40;1.13;;;;;;;;;;4989814;28;20450;-71
2022/10/02 06:11:27;;;;;;;3.67;1.37;;;;;;;;;;4991222;28;20840;-71
2022/10/02 06:13:58;;;;;;;2.90;1.50;;;;;;;;;;4990239;28;20457;-71
2022/10/02 06:16:29;;;;;;;2.00;1.00;;;;;;;;;;4994881;28;20453;-71
2022/10/02 06:18:58;;;;;;;3.90;1.30;;;;;;;;;;4988715;28;20442;-72
2022/10/02 06:21:28;;;;;;;6.70;1.30;;;;;;;;;;4975167;28;20490;-71
2022/10/02 06:23:58;;;;;;;1.77;1.50;;;;;;;;;;4967993;28;20999;-71
2022/10/02 06:26:29;;;;;;;3.97;1.90;;;;;;;;;;4994654;28;20920;-71
2022/10/02 06:29:01;;;;;;;2.50;1.53;;;;;;;;;;4969633;28;20450;-71
2022/10/02 06:31:34;;;;;;;1.97;1.00;;;;;;;;;;4994748;28;20528;-71
2022/10/02 06:34:01;;;;;;;4.00;1.20;;;;;;;;;;4994320;28;20796;-71
2022/10/02 06:36:39;;;;;;;1.70;1.37;;;;;;;;;;4994597;28;20458;-71
2022/10/02 06:39:21;;;;;;;2.77;1.37;;;;;;;;;;4993343;28;20449;-71
2022/10/02 06:41:55;;;;;;;3.23;1.70;;;;;;;;;;4978920;28;20461;-71
2022/10/02 06:44:27;;;;;;;2.17;1.43;;;;;;;;;;4994311;28;20523;-71
2022/10/02 06:46:59;;;;;;;2.10;1.50;;;;;;;;;;4994046;28;20511;-71
2022/10/02 06:49:32;;;;;;;3.67;1.67;;;;;;;;;;4988194;28;20461;-71
2022/10/02 06:52:05;;;;;;;3.73;1.70;;;;;;;;;;4993210;28;20500;-71
2022/10/02 06:54:42;;;;;;;2.13;1.50;;;;;;;;;;4993841;28;20479;-72
2022/10/02 06:57:18;;;;;;;4.57;2.70;;;;;;;;;;4993271;28;20529;-71
2022/10/02 06:59:55;;;;;;;5.40;1.20;;;;;;;;;;4968733;28;20451;-71
2022/10/02 07:02:28;;;;;;;4.03;1.60;;;;;;;;;;4993890;28;20441;-71
2022/10/02 07:05:02;;;;;;;1.87;1.40;;;;;;;;;;4992801;28;20484;-71
2022/10/02 07:07:36;;;;;;;1.63;1.50;;;;;;;;;;4993771;28;20445;-71
2022/10/02 07:10:13;;;;;;;1.93;1.20;;;;;;;;;;4981529;28;20452;-71
2022/10/02 07:12:55;;;;;;;2.37;1.03;;;;;;;;;;4993031;28;20460;-71
2022/10/02 07:15:40;;;;;;;1.93;1.40;;;;;;;;;;4991048;28;20498;-71
2022/10/02 07:18:16;;;;;;;2.33;1.50;;;;;;;;;;4992723;28;20453;-71
2022/10/02 07:20:48;;;;;;;2.53;1.57;;;;;;;;;;4986033;28;20484;-71
2022/10/02 07:23:36;;;;;;;8.90;2.30;;;;;;;;;;4988437;28;20449;-72
2022/10/02 07:26:14;;;;;;;3.43;1.40;;;;;;;;;;4987356;28;20545;-71
2022/10/02 07:28:45;;;;;;;1.93;1.70;;;;;;;;;;4981332;28;20457;-72
2022/10/02 07:31:19;;;;;;;3.17;1.70;;;;;;;;;;4992926;28;20956;-71
2022/10/02 07:33:53;;;;;;;4.60;1.90;;;;;;;;;;4993782;28;20452;-72
2022/10/02 07:36:25;;;;;;;2.50;1.30;;;;;;;;;;4993613;28;20449;-72
2022/10/02 07:38:58;;;;;;;4.87;1.80;;;;;;;;;;4992475;28;20461;-71
2022/10/02 07:41:35;;;;;;;3.20;1.50;;;;;;;;;;4993014;28;20441;-72
2022/10/02 07:44:08;;;;;;;2.80;1.47;;;;;;;;;;4992583;28;20501;-71
2022/10/02 07:46:41;;;;;;;3.93;1.80;;;;;;;;;;4993341;28;20797;-72
2022/10/02 07:49:15;;;;;;;3.73;1.87;;;;;;;;;;4986488;28;20485;-71
2022/10/02 07:51:48;;;;;;;3.20;1.83;;;;;;;;;;4992802;28;20448;-72
2022/10/02 07:54:30;;;;;;;2.80;1.77;;;;;;;;;;4992722;28;20469;-72
2022/10/02 07:57:01;;;;;;;6.13;2.60;;;;;;;;;;4989601;28;20973;-72
2022/10/02 07:59:30;;;;;;;2.17;1.43;;;;;;;;;;4992310;28;20436;-72
2022/10/02 08:01:59;;;;;;;2.87;1.50;;;;;;;;;;4991915;28;20461;-72
2022/10/02 08:04:28;;;;;;;8.00;2.73;;;;;;;;;;4992507;28;20492;-73
2022/10/02 08:06:59;;;;;;;3.10;2.73;;;;;;;;;;4991520;28;20453;-71
2022/10/02 08:09:32;;;;;;;7.13;1.83;;;;;;;;;;4984989;28;20470;-73
2022/10/02 08:12:00;;;;;;;4.40;1.87;;;;;;;;;;4987811;28;20457;-73
2022/10/02 08:14:30;;;;;;;7.33;2.40;;;;;;;;;;4994449;28;20457;-73
2022/10/02 08:17:02;;;;;;;4.60;2.07;;;;;;;;;;4992445;28;20449;-74
2022/10/02 08:19:33;;;;;;;2.50;1.40;;;;;;;;;;4982680;28;20458;-72
2022/10/02 08:22:01;;;;;;;5.03;2.23;;;;;;;;;;4976562;28;20802;-72
2022/10/02 08:24:31;;;;;;;3.43;2.17;;;;;;;;;;4991893;28;20515;-72
2022/10/02 08:26:59;;;;;;;5.13;2.00;;;;;;;;;;4987407;28;20938;-72
2022/10/02 08:29:28;;;;;;;3.73;1.90;;;;;;;;;;4984149;28;20451;-72
2022/10/02 08:31:56;;;;;;;4.53;2.53;;;;;;;;;;4991402;28;20455;-72
2022/10/02 08:34:25;;;;;;;2.47;1.70;;;;;;;;;;4992042;28;20945;-73
2022/10/02 08:37:14;;;;;;;4.20;2.10;;;;;;;;;;4991471;28;20449;-72
2022/10/02 08:39:53;;;;;;;4.47;2.53;;;;;;;;;;4991571;28;20746;-73
2022/10/02 08:42:50;;;;;;;3.10;2.30;;;;;;;;;;4992324;28;20453;-72
2022/10/02 08:45:35;;;;;;;1.87;1.77;;;;;;;;;;4931871;29;20491;-73
2022/10/02 08:48:10;;;;;;;4.93;2.50;;;;;;;;;;4984216;28;20532;-73
2022/10/02 08:51:07;;;;;;;4.17;2.30;;;;;;;;;;4986166;28;20473;-74
2022/10/02 08:53:53;;;;;;;6.50;2.30;;;;;;;;;;4982148;28;20451;-73
2022/10/02 08:56:34;;;;;;;2.97;2.30;;;;;;;;;;4991322;28;20453;-74
2022/10/02 08:59:17;;;;;;;2.97;2.00;;;;;;;;;;4990425;28;20445;-73
2022/10/02 09:02:18;;;;;;;2.93;1.80;;;;;;;;;;4991595;28;20440;-74
2022/10/02 09:05:04;;;;;;;4.77;3.07;;;;;;;;;;4991864;28;20481;-74
2022/10/02 09:07:47;;;;;;;2.73;1.83;;;;;;;;;;4991716;28;20450;-74
2022/10/02 09:10:29;;;;;;;2.30;2.00;;;;;;;;;;4991041;28;20449;-74
2022/10/02 09:13:21;;;;;;;5.17;2.47;;;;;;;;;;4991196;28;20452;-74
2022/10/02 09:15:54;;;;;;;2.80;2.07;;;;;;;;;;4991489;28;20441;-73
2022/10/02 09:18:34;;;;;;;4.20;2.00;;;;;;;;;;4991341;28;20809;-74
2022/10/02 09:21:15;;;;;;;3.03;2.00;;;;;;;;;;4961487;28;20473;-73
2022/10/02 09:24:01;;;;;;;6.37;1.87;;;;;;;;;;4989877;28;20441;-73
2022/10/02 09:26:44;;;;;;;2.60;1.40;;;;;;;;;;4991850;28;20446;-74
2022/10/02 09:29:33;;;;;;;4.40;2.27;;;;;;;;;;4972394;28;20480;-75
2022/10/02 09:32:20;;;;;;;6.40;1.67;;;;;;;;;;4991120;28;20560;-74
2022/10/02 09:35:01;;;;;;;3.13;2.07;;;;;;;;;;4991486;28;20453;-73
2022/10/02 09:37:37;;;;;;;4.60;1.50;;;;;;;;;;4991867;28;20523;-75
2022/10/02 09:40:25;;;;;;;3.93;2.20;;;;;;;;;;4990828;28;20449;-74
2022/10/02 09:43:13;;;;;;;6.10;2.03;;;;;;;;;;4990789;28;20441;-74
2022/10/02 09:45:52;;;;;;;3.67;1.80;;;;;;;;;;4966593;28;20939;-74
2022/10/02 09:48:44;;;;;;;2.87;1.63;;;;;;;;;;4967944;28;20449;-75
2022/10/02 09:51:29;;;;;;;3.03;2.13;;;;;;;;;;4991358;28;20547;-75
2022/10/02 09:54:09;;;;;;;5.70;1.50;;;;;;;;;;4993744;28;20445;-75
2022/10/02 09:56:46;;;;;;;2.80;1.67;;;;;;;;;;4994958;28;21022;-75
2022/10/02 09:59:28;;;;;;;1.90;1.50;;;;;;;;;;4994088;28;20460;-75
2022/10/02 10:02:06;;;;;;;3.70;1.90;;;;;;;;;;4981763;28;20457;-75
2022/10/02 10:04:51;;;;;;;2.10;1.73;;;;;;;;;;4995137;28;20472;-75
2022/10/02 10:07:45;;;;;;;3.37;1.73;;;;;;;;;;4995133;28;20445;-75
2022/10/02 10:10:27;;;;;;;5.70;2.20;;;;;;;;;;4958864;28;20461;-76
2022/10/02 10:13:14;;;;;;;2.73;1.83;;;;;;;;;;4981529;28;20468;-75
2022/10/02 10:15:57;;;;;;;7.63;1.70;;;;;;;;;;4994386;28;20452;-73
2022/10/02 10:18:42;;;;;;;2.67;1.80;;;;;;;;;;4994252;28;20452;-73
2022/10/02 10:21:28;;;;;;;3.37;2.00;;;;;;;;;;4974111;28;20539;-73
2022/10/02 10:24:12;;;;;;;2.10;1.73;;;;;;;;;;4980823;28;20449;-73
2022/10/02 10:26:44;;;;;;;3.00;1.83;;;;;;;;;;4993463;28;20445;-73
2022/10/02 10:29:30;;;;;;;2.50;2.00;;;;;;;;;;4983832;28;20556;-73
2022/10/02 10:32:29;;;;;;;2.10;1.73;;;;;;;;;;4993561;28;20449;-74
2022/10/02 10:35:20;;;;;;;2.53;2.07;;;;;;;;;;4933403;29;20459;-73
2022/10/02 10:40:50;;;;;;;2.83;2.07;;;;;;;;;;4994395;28;20432;-73
2022/10/02 10:43:31;;;;;;;3.07;2.30;;;;;;;;;;4994776;28;20528;-73
2022/10/02 10:46:08;;;;;;;3.13;1.57;;;;;;;;;;4993834;28;20472;-74
2022/10/02 10:48:43;;;;;;;2.33;1.50;;;;;;;;;;4992743;28;20540;-74
2022/10/02 10:51:29;;;;;;;5.47;1.60;;;;;;;;;;4990554;28;20555;-74
2022/10/02 10:54:23;;;;;;;2.00;1.63;;;;;;;;;;4993451;28;20457;-73
2022/10/02 10:56:53;;;;;;;4.37;3.30;;;;;;;;;;4958782;28;20468;-72
2022/10/02 10:59:53;;;;;;;3.43;1.93;;;;;;;;;;4993549;28;20484;-74
2022/10/02 11:02:44;;;;;;;4.47;1.80;;;;;;;;;;4933590;29;20460;-74
2022/10/02 11:05:23;;;;;;;1.80;1.40;;;;;;;;;;4932878;29;20480;-74
2022/10/02 11:08:04;;;;;;;2.30;1.43;;;;;;;;;;4974004;28;20453;-73
2022/10/02 11:10:43;;;;;;;2.30;1.30;;;;;;;;;;4993586;28;20456;-74
2022/10/02 11:13:18;;;;;;;3.70;1.90;;;;;;;;;;4993042;28;20451;-76
2022/10/02 11:16:00;;;;;;;1.10;1.00;;;;;;;;;;4993803;28;20448;-74
2022/10/02 11:18:44;;;;;;;2.40;0.70;;;;;;;;;;4980420;28;20457;-76
2022/10/02 11:21:24;;;;;;;0.90;0.60;;;;;;;;;;4952222;28;20634;-76
2022/10/02 11:24:01;;;;;;;3.43;0.93;;;;;;;;;;4992783;28;20484;-75
2022/10/02 11:26:43;;;;;;;1.10;0.80;;;;;;;;;;4993375;28;20477;-76
2022/10/02 11:29:38;;;;;;;1.07;0.70;;;;;;;;;;4973842;28;20446;-76
2022/10/02 11:32:25;;;;;;;0.90;0.73;;;;;;;;;;4958006;28;20468;-76
2022/10/02 11:35:10;;;;;;;1.50;0.90;;;;;;;;;;4983930;28;20945;-75
2022/10/02 11:37:46;;;;;;;1.20;0.90;;;;;;;;;;4963078;28;20457;-76
2022/10/02 11:40:31;;;;;;;1.00;0.70;;;;;;;;;;4969165;28;20901;-74
2022/10/02 11:43:07;;;;;;;1.30;0.93;;;;;;;;;;4982655;28;20465;-74
2022/10/02 11:45:42;;;;;;;1.03;0.60;;;;;;;;;;4992753;28;20472;-74
2022/10/02 11:48:20;;;;;;;0.83;0.60;;;;;;;;;;4992189;28;20515;-74
2022/10/02 11:51:09;;;;;;;1.40;1.10;;;;;;;;;;4988322;28;20815;-73
2022/10/02 11:53:43;;;;;;;1.77;0.60;;;;;;;;;;4993132;28;20449;-75
2022/10/02 11:56:21;;;;;;;0.90;0.60;;;;;;;;;;4992087;28;20467;-75
2022/10/02 11:58:54;;;;;;;5.00;0.70;;;;;;;;;;4979884;28;20438;-73
2022/10/02 12:01:24;;;;;;;0.80;0.60;;;;;;;;;;4969774;28;20457;-74
2022/10/02 12:04:05;;;;;;;0.80;0.50;;;;;;;;;;4993286;28;20449;-72
2022/10/02 12:06:40;;;;;;;1.00;0.70;;;;;;;;;;4996815;28;20477;-75
2022/10/02 12:09:12;;;;;;;0.80;0.60;;;;;;;;;;4996126;28;20453;-75
2022/10/02 12:11:44;;;;;;;1.30;0.70;;;;;;;;;;4993808;28;20479;-76
2022/10/02 12:14:19;;;;;;;1.10;0.60;;;;;;;;;;4992981;28;20460;-75
2022/10/02 12:16:52;;;;;;;1.20;0.70;;;;;;;;;;4996338;28;20444;-74
2022/10/02 12:19:26;;;;;;;1.20;0.87;;;;;;;;;;4987955;28;20512;-74
2022/10/02 12:27:41;;;;;;;1.20;0.60;;;;;;;;;;4983049;28;20488;-75
2022/10/02 12:30:11;;;;;;;0.90;0.60;;;;;;;;;;4989478;28;20445;-75
2022/10/02 12:32:44;;;;;;;3.97;0.70;;;;;;;;;;4980819;28;20454;-75
2022/10/02 12:35:21;;;;;;;0.80;0.50;;;;;;;;;;4990448;28;20449;-74
2022/10/02 12:37:52;;;;;;;0.73;0.50;;;;;;;;;;4991370;28;20449;-75
2022/10/02 12:40:24;;;;;;;0.93;0.50;;;;;;;;;;4992371;28;20450;-76
2022/10/02 12:43:18;;;;;;;1.30;0.90;;;;;;;;;;4991566;28;20449;-73
2022/10/02 12:46:07;;;;;;;1.33;0.70;;;;;;;;;;4957522;28;20493;-74
2022/10/02 12:48:43;;;;;;;0.70;0.50;;;;;;;;;;4965412;28;20467;-74
2022/10/02 12:51:32;;;;;;;0.80;0.60;;;;;;;;;;4988509;28;20558;-74
2022/10/02 12:54:26;;;;;;;1.00;0.50;;;;;;;;;;4991247;28;20445;-76
2022/10/02 12:57:50;;;;;;;5.87;4.33;;;;;;;;;;4991150;28;20451;-73
2022/10/02 13:00:02;;;;;;;3.40;2.00;;;;;;;;;;4970446;28;20853;-76
2022/10/02 13:02:48;;;;;;;1.40;1.10;;;;;;;;;;4991472;28;20944;-75
2022/10/02 13:05:26;;;;;;;1.13;0.80;;;;;;;;;;4991374;28;21043;-76
2022/10/02 13:08:08;;;;;;;0.90;0.57;;;;;;;;;;4990857;28;20452;-75
2022/10/02 13:10:39;;;;;;;0.80;0.57;;;;;;;;;;4989557;28;20462;-76
2022/10/02 13:13:15;;;;;;;1.63;0.60;;;;;;;;;;4991206;28;20449;-75
2022/10/02 13:15:46;;;;;;;0.80;0.60;;;;;;;;;;4991703;28;20445;-75
2022/10/02 13:18:32;;;;;;;0.80;0.50;;;;;;;;;;4991034;28;20449;-75
2022/10/02 13:21:03;;;;;;;0.80;0.50;;;;;;;;;;4961568;28;20490;-75
2022/10/02 13:23:33;;;;;;;1.00;0.67;;;;;;;;;;4988448;28;20539;-75
2022/10/02 13:26:07;;;;;;;0.83;0.67;;;;;;;;;;4994629;28;20484;-75
2022/10/02 13:28:48;;;;;;;1.30;1.00;;;;;;;;;;4982808;28;20503;-75
2022/10/02 13:31:22;;;;;;;2.60;0.83;;;;;;;;;;4995989;28;20877;-74
2022/10/02 13:33:59;;;;;;;1.20;0.80;;;;;;;;;;4994989;28;20941;-73
2022/10/02 13:36:34;;;;;;;2.73;0.73;;;;;;;;;;4995745;28;20519;-74
2022/10/02 13:39:06;;;;;;;1.23;0.90;;;;;;;;;;4994371;28;20451;-74
2022/10/02 13:41:38;;;;;;;1.10;0.50;;;;;;;;;;4995504;28;20445;-74
2022/10/02 13:44:11;;;;;;;0.80;0.50;;;;;;;;;;4994684;28;20448;-75
2022/10/02 13:47:06;;;;;;;1.43;0.80;;;;;;;;;;4995556;28;20484;-74
2022/10/02 13:49:40;;;;;;;1.37;0.70;;;;;;;;;;4953947;28;20475;-75
2022/10/02 13:52:13;;;;;;;0.87;0.50;;;;;;;;;;4994230;28;20463;-74
2022/10/02 13:54:52;;;;;;;0.80;0.60;;;;;;;;;;4994644;28;20904;-74
2022/10/02 13:57:27;;;;;;;0.90;0.60;;;;;;;;;;4994480;28;20451;-74
2022/10/02 14:00:01;;;;;;;0.80;0.53;;;;;;;;;;4994453;28;20452;-74
2022/10/02 14:02:38;;;;;;;0.80;0.60;;;;;;;;;;4994826;28;20932;-75
2022/10/02 14:05:06;;;;;;;1.27;0.83;;;;;;;;;;4993961;28;20564;-75
2022/10/02 14:07:44;;;;;;;0.80;0.60;;;;;;;;;;4994369;28;20516;-75
2022/10/02 14:10:16;;;;;;;1.37;0.87;;;;;;;;;;4993933;28;20463;-75
2022/10/02 14:12:48;;;;;;;1.10;0.80;;;;;;;;;;4969754;28;20445;-74
2022/10/02 14:15:29;;;;;;;1.10;0.70;;;;;;;;;;4994527;28;20463;-75
2022/10/02 14:18:08;;;;;;;0.70;0.50;;;;;;;;;;4993617;28;20520;-75
2022/10/02 14:20:40;;;;;;;1.13;0.73;;;;;;;;;;4976670;28;20481;-75
2022/10/02 14:23:24;;;;;;;0.97;0.73;;;;;;;;;;4987789;28;20445;-75
2022/10/02 14:25:57;;;;;;;0.80;0.50;;;;;;;;;;4994190;28;20485;-77
2022/10/02 14:28:42;;;;;;;0.80;0.60;;;;;;;;;;4982331;28;20449;-75
2022/10/02 14:31:25;;;;;;;0.93;0.50;;;;;;;;;;4983853;28;20457;-76
2022/10/02 14:34:07;;;;;;;0.87;0.40;;;;;;;;;;4994162;28;20445;-75
2022/10/02 14:36:37;;;;;;;0.70;0.40;;;;;;;;;;4991507;28;20802;-75
2022/10/02 14:39:12;;;;;;;0.70;0.50;;;;;;;;;;4993762;28;20438;-75
2022/10/02 14:41:46;;;;;;;0.80;0.50;;;;;;;;;;4989523;28;20446;-75
2022/10/02 14:44:30;;;;;;;1.37;0.60;;;;;;;;;;4987536;28;20527;-76
2022/10/02 14:47:05;;;;;;;0.70;0.50;;;;;;;;;;4993794;28;20833;-76
2022/10/02 14:49:40;;;;;;;1.80;0.93;;;;;;;;;;4988021;28;20467;-76
2022/10/02 14:52:22;;;;;;;1.63;0.60;;;;;;;;;;4993671;28;20505;-75
2022/10/02 14:55:01;;;;;;;0.87;0.63;;;;;;;;;;4991300;28;20485;-73
2022/10/02 14:57:40;;;;;;;1.10;0.60;;;;;;;;;;4993971;28;20449;-74
2022/10/02 15:00:16;;;;;;;1.00;0.67;;;;;;;;;;4993455;28;20481;-74
2022/10/02 15:03:10;;;;;;;1.17;0.60;;;;;;;;;;4993629;28;20457;-75
2022/10/02 15:05:45;;;;;;;0.83;0.50;;;;;;;;;;4959059;28;20540;-74
2022/10/02 15:08:16;;;;;;;1.07;0.57;;;;;;;;;;4980202;28;20466;-74
2022/10/02 15:10:45;;;;;;;0.80;0.60;;;;;;;;;;4988714;28;20450;-74
2022/10/02 15:13:23;;;;;;;0.93;0.77;;;;;;;;;;4992736;28;20543;-74
2022/10/02 15:17:53;;;;;;;1.03;0.70;;;;;;;;;;4991916;28;20449;-72
2022/10/02 15:18:43;;;;;;;1.87;1.00;;;;;;;;;;4989659;28;20501;-74
2022/10/02 15:21:19;;;;;;;4.90;1.23;;;;;;;;;;4972350;28;20482;-74
2022/10/02 15:23:48;;;;;;;1.20;0.80;;;;;;;;;;4991489;28;20460;-75
2022/10/02 15:26:34;;;;;;;1.00;0.70;;;;;;;;;;4992674;28;20487;-75
2022/10/02 15:29:10;;;;;;;0.90;0.70;;;;;;;;;;4969122;28;20453;-76
2022/10/02 15:31:40;;;;;;;1.10;0.73;;;;;;;;;;4992402;28;20445;-73
2022/10/02 15:34:14;;;;;;;0.90;0.70;;;;;;;;;;4992075;28;20460;-74
2022/10/02 15:36:47;;;;;;;1.40;0.80;;;;;;;;;;4978043;28;20473;-73
2022/10/02 15:39:23;;;;;;;1.17;0.90;;;;;;;;;;4992087;28;20537;-74
2022/10/02 15:42:01;;;;;;;1.43;0.70;;;;;;;;;;4967255;28;20454;-73